Time;durP1;ratioP1;P1;durP2;ratioP2;P2;SDS_P1;SDS_P2;PMS_P1;PMS_P2;Temp;Humidity;BMP_temperature;BMP_pressure;BME280_temperature;BME280_humidity;BME280_pressure;Samples;Min_cycle;Max_cycle;Signal;HPM_P1;HPM_P2
2023/08/16 00:02:15;;;;;;;;;;;28.80;58.30;;;;;;5065335;28;43058;-82
2023/08/16 00:04:41;;;;;;;;;;;28.90;58.40;;;;;;5047495;28;44881;-82
2023/08/16 00:07:07;;;;;;;;;;;28.80;57.90;;;;;;5045122;28;42715;-83
2023/08/16 00:09:33;;;;;;;;;;;28.60;57.10;;;;;;5061222;28;42746;-82
2023/08/16 00:11:58;;;;;;;;;;;28.70;57.60;;;;;;5065497;28;43310;-83
2023/08/16 00:14:24;;;;;;;;;;;28.50;57.90;;;;;;5065711;28;43037;-82
2023/08/16 00:16:49;;;;;;;;;;;28.60;58.50;;;;;;5064652;28;42964;-82
2023/08/16 00:19:15;;;;;;;;;;;28.50;57.80;;;;;;5042203;28;43535;-82
2023/08/16 00:21:40;;;;;;;;;;;28.40;58.60;;;;;;5055382;28;43136;-83
2023/08/16 00:24:06;;;;;;;;;;;28.50;58.10;;;;;;5064775;28;43076;-83
2023/08/16 00:26:32;;;;;;;;;;;28.50;58.70;;;;;;5065307;28;43653;-81
2023/08/16 00:28:57;;;;;;;;;;;28.20;59.10;;;;;;5064810;28;44247;-84
2023/08/16 00:31:23;;;;;;;;;;;28.30;59.00;;;;;;5059809;28;42951;-83
2023/08/16 00:33:49;;;;;;;;;;;28.10;57.90;;;;;;5060508;28;43380;-85
2023/08/16 00:36:14;;;;;;;;;;;28.20;56.90;;;;;;5065499;28;42951;-83
2023/08/16 00:38:42;;;;;;;;;;;28.10;55.90;;;;;;5064844;28;43377;-83
2023/08/16 00:41:12;;;;;;;;;;;28.50;56.50;;;;;;5047605;28;42778;-84
2023/08/16 00:43:38;;;;;;;;;;;28.40;55.00;;;;;;5047095;28;42939;-82
2023/08/16 00:46:04;;;;;;;;;;;28.50;57.00;;;;;;5045058;28;42957;-82
2023/08/16 00:48:30;;;;;;;;;;;28.10;56.80;;;;;;5027201;28;45634;-89
2023/08/16 00:50:56;;;;;;;;;;;28.10;57.00;;;;;;5027177;28;42985;-83
2023/08/16 00:53:22;;;;;;;;;;;28.20;56.90;;;;;;5046126;28;44012;-83
2023/08/16 00:55:47;;;;;;;;;;;28.00;56.20;;;;;;5054061;28;42941;-82
2023/08/16 00:58:13;;;;;;;;;;;28.10;56.10;;;;;;5044916;28;42831;-81
2023/08/16 01:00:39;;;;;;;;;;;28.10;56.00;;;;;;5045038;28;42955;-83
2023/08/16 01:03:06;;;;;;;;;;;28.40;55.40;;;;;;5052655;28;63513;-82
2023/08/16 01:05:32;;;;;;;;;;;27.90;55.70;;;;;;5064522;28;44198;-87
2023/08/16 01:07:58;;;;;;;;;;;27.90;55.50;;;;;;5064424;28;43076;-82
2023/08/16 01:10:26;;;;;;;;;;;28.40;55.30;;;;;;5065516;28;43133;-82
2023/08/16 01:12:55;;;;;;;;;;;28.10;55.10;;;;;;5064004;28;43475;-81
2023/08/16 01:15:24;;;;;;;;;;;28.10;54.80;;;;;;5063776;28;42762;-83
2023/08/16 01:17:51;;;;;;;;;;;28.00;54.40;;;;;;5065832;28;43243;-82
2023/08/16 01:20:18;;;;;;;;;;;28.00;53.60;;;;;;5036842;28;43018;-83
2023/08/16 01:22:52;;;;;;;;;;;28.30;53.80;;;;;;5064700;28;43310;-86
2023/08/16 01:25:23;;;;;;;;;;;28.10;52.30;;;;;;5063752;28;42978;-81
2023/08/16 01:27:51;;;;;;;;;;;28.20;52.30;;;;;;5064844;28;43025;-82
2023/08/16 01:30:17;;;;;;;;;;;28.20;53.90;;;;;;5064428;28;43069;-81
2023/08/16 01:32:43;;;;;;;;;;;28.30;54.10;;;;;;5064217;28;43536;-83
2023/08/16 01:35:09;;;;;;;;;;;28.30;54.00;;;;;;5059330;28;43006;-83
2023/08/16 01:37:34;;;;;;;;;;;28.00;53.80;;;;;;5064459;28;43769;-83
2023/08/16 01:40:20;;;;;;;;;;;28.20;54.30;;;;;;5064711;28;42998;-84
2023/08/16 01:42:47;;;;;;;;;;;28.30;54.30;;;;;;5063573;28;43947;-83
2023/08/16 01:45:15;;;;;;;;;;;28.40;54.20;;;;;;5063499;28;43200;-83
2023/08/16 01:47:41;;;;;;;;;;;28.60;54.70;;;;;;5064034;28;43382;-83
2023/08/16 01:50:07;;;;;;;;;;;28.40;54.70;;;;;;5064567;28;42868;-83
2023/08/16 01:52:33;;;;;;;;;;;28.30;54.90;;;;;;5064600;28;42919;-90
2023/08/16 01:54:58;;;;;;;;;;;28.40;55.60;;;;;;5045407;28;43087;-91
2023/08/16 01:57:24;;;;;;;;;;;28.10;54.90;;;;;;5062591;28;43776;-83
2023/08/16 01:59:49;;;;;;;;;;;27.90;55.60;;;;;;5064326;28;42983;-83
2023/08/16 02:02:15;;;;;;;;;;;28.20;55.60;;;;;;5064982;28;42863;-83
2023/08/16 02:04:40;;;;;;;;;;;28.40;55.60;;;;;;5064055;28;42935;-85
2023/08/16 02:07:06;;;;;;;;;;;28.40;55.60;;;;;;5063789;28;44207;-83
2023/08/16 02:09:31;;;;;;;;;;;28.30;55.60;;;;;;5063035;28;43034;-84
2023/08/16 02:11:57;;;;;;;;;;;28.30;55.30;;;;;;5063783;28;42990;-84
2023/08/16 02:14:23;;;;;;;;;;;30.00;56.50;;;;;;5060440;28;42988;-83
2023/08/16 02:16:48;;;;;;;;;;;28.40;55.60;;;;;;5043159;28;43025;-83
2023/08/16 02:19:14;;;;;;;;;;;28.40;55.40;;;;;;5043370;28;43052;-83
2023/08/16 02:21:39;;;;;;;;;;;28.40;55.00;;;;;;5044056;28;43849;-84
2023/08/16 02:24:05;;;;;;;;;;;28.40;55.10;;;;;;5027140;28;42930;-83
2023/08/16 02:26:30;;;;;;;;;;;28.50;55.20;;;;;;5053912;28;43802;-85
2023/08/16 02:28:56;;;;;;;;;;;28.40;55.90;;;;;;5063983;28;42938;-84
2023/08/16 02:31:22;;;;;;;;;;;28.50;56.00;;;;;;5064010;28;43430;-83
2023/08/16 02:33:48;;;;;;;;;;;28.40;55.80;;;;;;5060624;28;42905;-83
2023/08/16 02:36:13;;;;;;;;;;;28.10;55.60;;;;;;5048529;28;43287;-82
2023/08/16 02:38:38;;;;;;;;;;;28.20;55.60;;;;;;5063299;28;42983;-83
2023/08/16 02:41:04;;;;;;;;;;;28.10;55.50;;;;;;5063277;28;42985;-85
2023/08/16 02:43:30;;;;;;;;;;;28.10;55.80;;;;;;5063122;28;43030;-84
2023/08/16 02:45:55;;;;;;;;;;;28.20;55.50;;;;;;5053076;28;42999;-86
2023/08/16 02:48:21;;;;;;;;;;;28.20;55.40;;;;;;5065107;28;42984;-82
2023/08/16 02:50:46;;;;;;;;;;;28.20;55.60;;;;;;5067025;28;43338;-82
2023/08/16 02:53:12;;;;;;;;;;;28.20;55.30;;;;;;5067538;28;42899;-87
2023/08/16 02:55:38;;;;;;;;;;;28.20;55.40;;;;;;5065689;28;43196;-82
2023/08/16 02:58:04;;;;;;;;;;;28.20;55.40;;;;;;5066654;28;43030;-84
2023/08/16 03:00:30;;;;;;;;;;;28.20;55.50;;;;;;5048628;28;43965;-82
2023/08/16 03:02:55;;;;;;;;;;;28.10;55.60;;;;;;5049505;28;42870;-82
2023/08/16 03:05:21;;;;;;;;;;;29.10;56.20;;;;;;5066457;28;43204;-82
2023/08/16 03:07:46;;;;;;;;;;;28.10;55.40;;;;;;5065891;28;43177;-82
2023/08/16 03:10:12;;;;;;;;;;;28.50;56.00;;;;;;5067075;28;42945;-84
2023/08/16 03:12:37;;;;;;;;;;;27.60;55.50;;;;;;5049073;28;42912;-82
2023/08/16 03:15:03;;;;;;;;;;;28.10;55.80;;;;;;5066062;28;44096;-82
2023/08/16 03:17:28;;;;;;;;;;;28.20;55.50;;;;;;5064860;28;42930;-83
2023/08/16 03:19:54;;;;;;;;;;;28.10;55.80;;;;;;5065901;28;42909;-79
2023/08/16 03:22:20;;;;;;;;;;;28.20;55.60;;;;;;5066840;28;43061;-83
2023/08/16 03:24:46;;;;;;;;;;;28.10;55.50;;;;;;5066107;28;42922;-84
2023/08/16 03:27:12;;;;;;;;;;;28.20;55.60;;;;;;5066350;28;43001;-83
2023/08/16 03:29:38;;;;;;;;;;;28.20;55.30;;;;;;5047984;28;43640;-83
2023/08/16 03:32:04;;;;;;;;;;;28.10;55.40;;;;;;5048067;28;42993;-88
2023/08/16 03:34:30;;;;;;;;;;;28.20;55.20;;;;;;5065745;28;42891;-88
2023/08/16 03:36:56;;;;;;;;;;;28.20;56.00;;;;;;5045472;28;43040;-82
2023/08/16 03:39:21;;;;;;;;;;;27.90;55.60;;;;;;5045822;28;44333;-88
2023/08/16 03:41:47;;;;;;;;;;;28.00;55.70;;;;;;5046113;28;42880;-84
2023/08/16 03:44:12;;;;;;;;;;;28.00;55.70;;;;;;5054613;28;43152;-86
2023/08/16 03:46:38;;;;;;;;;;;28.00;55.90;;;;;;5066810;28;42927;-82
2023/08/16 03:49:03;;;;;;;;;;;28.00;55.70;;;;;;5064879;28;44202;-81
2023/08/16 03:51:29;;;;;;;;;;;28.00;55.80;;;;;;5049052;28;43036;-82
2023/08/16 03:53:54;;;;;;;;;;;28.10;55.90;;;;;;5066399;28;43843;-84
2023/08/16 03:56:20;;;;;;;;;;;28.00;55.60;;;;;;5066239;28;42848;-85
2023/08/16 03:58:46;;;;;;;;;;;28.20;55.90;;;;;;5064571;28;42957;-84
2023/08/16 04:01:11;;;;;;;;;;;28.10;55.50;;;;;;5065939;28;42900;-82
2023/08/16 04:03:37;;;;;;;;;;;28.10;55.10;;;;;;5065136;28;42971;-84
2023/08/16 04:06:02;;;;;;;;;;;28.00;54.60;;;;;;5047261;28;43157;-82
2023/08/16 04:08:28;;;;;;;;;;;28.00;55.00;;;;;;5067158;28;44007;-82
2023/08/16 04:10:54;;;;;;;;;;;27.90;55.10;;;;;;5069464;28;43208;-82
2023/08/16 04:13:19;;;;;;;;;;;28.10;54.80;;;;;;5051422;28;43568;-82
2023/08/16 04:15:45;;;;;;;;;;;27.90;54.70;;;;;;5068499;28;43157;-86
2023/08/16 04:18:10;;;;;;;;;;;28.00;54.90;;;;;;5052423;28;43024;-82
2023/08/16 04:20:36;;;;;;;;;;;28.00;54.80;;;;;;5062165;28;42971;-82
2023/08/16 04:23:02;;;;;;;;;;;28.00;54.70;;;;;;5065170;28;43548;-82
2023/08/16 04:25:27;;;;;;;;;;;28.00;54.70;;;;;;5065007;28;42923;-84
2023/08/16 04:27:53;;;;;;;;;;;28.00;55.20;;;;;;5046732;28;44386;-83
2023/08/16 04:30:18;;;;;;;;;;;28.00;54.90;;;;;;5065652;28;42936;-84
2023/08/16 04:32:44;;;;;;;;;;;28.10;54.90;;;;;;5064795;28;43036;-84
2023/08/16 04:35:09;;;;;;;;;;;28.00;53.90;;;;;;5064170;28;43117;-84
2023/08/16 04:37:35;;;;;;;;;;;28.00;54.50;;;;;;5046737;28;43047;-83
2023/08/16 04:40:00;;;;;;;;;;;28.00;54.40;;;;;;5046323;28;43074;-83
2023/08/16 04:42:26;;;;;;;;;;;28.10;54.50;;;;;;5045013;28;43863;-84
2023/08/16 04:44:52;;;;;;;;;;;28.20;54.20;;;;;;5046090;28;42983;-85
2023/08/16 04:47:17;;;;;;;;;;;28.10;54.20;;;;;;5027668;28;44930;-83
2023/08/16 04:49:43;;;;;;;;;;;28.10;54.00;;;;;;5046166;28;43175;-84
2023/08/16 04:52:08;;;;;;;;;;;28.10;54.50;;;;;;5058221;28;43049;-84
2023/08/16 04:54:34;;;;;;;;;;;28.10;53.90;;;;;;5064731;28;42951;-83
2023/08/16 04:56:59;;;;;;;;;;;28.00;53.10;;;;;;5063805;28;43729;-83
2023/08/16 04:59:25;;;;;;;;;;;28.10;54.10;;;;;;5045109;28;43043;-83
2023/08/16 05:01:51;;;;;;;;;;;28.10;54.50;;;;;;5063676;28;43480;-83
2023/08/16 05:04:16;;;;;;;;;;;27.60;54.20;;;;;;5063460;28;43029;-83
2023/08/16 05:06:42;;;;;;;;;;;28.10;54.50;;;;;;5063949;28;43003;-83
2023/08/16 05:09:07;;;;;;;;;;;28.30;54.90;;;;;;5049632;28;43236;-83
2023/08/16 05:11:33;;;;;;;;;;;28.20;53.90;;;;;;5026421;28;45751;-83
2023/08/16 05:13:58;;;;;;;;;;;27.50;54.40;;;;;;5045955;28;43206;-84
2023/08/16 05:16:24;;;;;;;;;;;28.30;54.00;;;;;;5063778;28;43504;-83
2023/08/16 05:18:49;;;;;;;;;;;28.20;54.00;;;;;;5064064;28;43126;-82
2023/08/16 05:21:15;;;;;;;;;;;28.20;54.60;;;;;;5062872;28;42972;-91
2023/08/16 05:23:47;;;;;;;;;;;28.10;53.90;;;;;;5045986;28;42958;-91
2023/08/16 05:26:15;;;;;;;;;;;28.10;54.70;;;;;;5053634;28;44014;-87
2023/08/16 05:28:40;;;;;;;;;;;27.90;53.00;;;;;;5060353;28;43173;-89
2023/08/16 05:31:16;;;;;;;;;;;28.50;54.60;;;;;;5043619;28;44418;-89
2023/08/16 05:33:42;;;;;;;;;;;28.30;54.50;;;;;;5063325;28;43066;-88
2023/08/16 05:36:07;;;;;;;;;;;28.30;55.10;;;;;;5046541;28;45839;-88
2023/08/16 05:38:33;;;;;;;;;;;28.30;54.40;;;;;;5043836;28;42909;-90
2023/08/16 05:41:03;;;;;;;;;;;28.30;54.50;;;;;;5040460;28;45319;-90
2023/08/16 05:43:29;;;;;;;;;;;28.30;54.50;;;;;;5060130;28;43089;-89
2023/08/16 05:45:54;;;;;;;;;;;28.30;54.50;;;;;;5064477;28;44094;-89
2023/08/16 05:48:20;;;;;;;;;;;28.30;54.40;;;;;;5064333;28;42914;-89
2023/08/16 05:50:52;;;;;;;;;;;28.30;54.50;;;;;;5060247;28;44069;-89
2023/08/16 05:53:29;;;;;;;;;;;28.30;53.00;;;;;;5047217;28;43069;-88
2023/08/16 05:55:55;;;;;;;;;;;28.40;53.30;;;;;;5043977;28;44535;-89
2023/08/16 05:58:21;;;;;;;;;;;28.40;54.80;;;;;;5045032;28;42925;-92
2023/08/16 06:00:47;;;;;;;;;;;28.50;54.80;;;;;;5063799;28;43661;-92
2023/08/16 06:03:19;;;;;;;;;;;28.40;54.80;;;;;;5064097;28;43097;-94
2023/08/16 06:05:51;;;;;;;;;;;28.30;53.50;;;;;;5061593;28;43925;-94
2023/08/16 06:08:16;;;;;;;;;;;29.70;54.70;;;;;;5064074;28;42946;-92
2023/08/16 06:10:57;;;;;;;;;;;28.40;55.00;;;;;;5061781;28;43007;-91
2023/08/16 06:13:22;;;;;;;;;;;28.50;53.50;;;;;;5041676;28;43019;-91
2023/08/16 06:18:33;;;;;;;;;;;28.40;54.80;;;;;;5060258;28;43017;-91
2023/08/16 06:20:59;;;;;;;;;;;28.50;54.90;;;;;;5060346;28;42955;-91
2023/08/16 06:23:25;;;;;;;;;;;28.50;54.80;;;;;;5043337;28;43197;-87
2023/08/16 06:25:50;;;;;;;;;;;28.50;54.90;;;;;;5045014;28;44502;-87
2023/08/16 06:28:17;;;;;;;;;;;28.50;54.80;;;;;;5043154;28;43031;-86
2023/08/16 06:30:42;;;;;;;;;;;28.60;56.10;;;;;;5058479;28;44277;-88
2023/08/16 06:33:08;;;;;;;;;;;28.40;55.50;;;;;;5058378;28;43085;-87
2023/08/16 06:35:33;;;;;;;;;;;28.70;56.20;;;;;;5061469;28;43006;-87
2023/08/16 06:38:01;;;;;;;;;;;28.60;56.00;;;;;;5043191;28;43072;-83
2023/08/16 06:40:27;;;;;;;;;;;28.70;55.40;;;;;;5052167;28;43560;-88
2023/08/16 06:42:52;;;;;;;;;;;28.70;55.40;;;;;;5062699;28;43082;-83
2023/08/16 06:45:18;;;;;;;;;;;28.70;55.30;;;;;;5053243;28;43033;-83
2023/08/16 06:47:43;;;;;;;;;;;28.50;55.30;;;;;;5052637;28;43094;-89
2023/08/16 06:50:09;;;;;;;;;;;28.70;54.80;;;;;;5041241;28;45826;-84
2023/08/16 06:52:34;;;;;;;;;;;28.60;54.70;;;;;;5063027;28;42994;-85
2023/08/16 06:55:00;;;;;;;;;;;28.60;54.70;;;;;;5060808;28;43076;-83
2023/08/16 06:57:26;;;;;;;;;;;28.80;55.70;;;;;;5058305;28;42974;-82
2023/08/16 06:59:54;;;;;;;;;;;28.50;54.90;;;;;;5058649;28;42896;-84
2023/08/16 07:02:20;;;;;;;;;;;28.20;53.70;;;;;;5042303;28;43031;-83
2023/08/16 07:04:46;;;;;;;;;;;28.70;54.80;;;;;;5062669;28;43041;-82
2023/08/16 07:07:13;;;;;;;;;;;28.70;55.90;;;;;;5060161;28;43137;-83
2023/08/16 07:09:38;;;;;;;;;;;28.80;53.90;;;;;;5069820;28;43636;-82
2023/08/16 07:12:06;;;;;;;;;;;28.60;55.90;;;;;;5068823;28;42964;-82
2023/08/16 07:14:31;;;;;;;;;;;28.70;55.00;;;;;;5066301;28;43046;-84
2023/08/16 07:16:57;;;;;;;;;;;28.70;55.60;;;;;;5056633;28;43167;-84
2023/08/16 07:19:25;;;;;;;;;;;28.80;55.00;;;;;;5041836;28;44534;-86
2023/08/16 07:21:51;;;;;;;;;;;28.40;53.90;;;;;;5057157;28;43027;-82
2023/08/16 07:24:16;;;;;;;;;;;28.80;55.20;;;;;;5055962;28;43085;-90
2023/08/16 07:26:42;;;;;;;;;;;28.80;55.30;;;;;;5062247;28;43012;-88
2023/08/16 07:29:08;;;;;;;;;;;28.80;55.40;;;;;;5060983;28;43114;-85
2023/08/16 07:31:35;;;;;;;;;;;28.80;56.00;;;;;;5044350;28;43024;-84
2023/08/16 07:34:00;;;;;;;;;;;29.00;54.60;;;;;;5062910;28;43327;-82
2023/08/16 07:36:27;;;;;;;;;;;28.80;56.40;;;;;;5056834;28;43986;-83
2023/08/16 07:38:53;;;;;;;;;;;28.50;55.70;;;;;;5055113;28;43319;-87
2023/08/16 07:41:18;;;;;;;;;;;28.80;55.90;;;;;;5060467;28;43059;-83
2023/08/16 07:43:44;;;;;;;;;;;28.90;55.90;;;;;;5050856;28;43054;-82
2023/08/16 07:46:09;;;;;;;;;;;28.80;55.80;;;;;;5047608;28;42930;-85
2023/08/16 07:48:35;;;;;;;;;;;28.90;55.90;;;;;;5047278;28;44176;-82
2023/08/16 07:51:00;;;;;;;;;;;28.80;55.50;;;;;;5047234;28;42889;-83
2023/08/16 07:53:26;;;;;;;;;;;28.90;55.50;;;;;;5047440;28;42775;-82
2023/08/16 07:55:51;;;;;;;;;;;28.90;55.30;;;;;;5058952;28;43010;-82
2023/08/16 07:58:17;;;;;;;;;;;28.80;55.10;;;;;;5061770;28;43459;-82
2023/08/16 08:00:43;;;;;;;;;;;28.90;54.90;;;;;;5031035;28;43141;-82
2023/08/16 08:03:11;;;;;;;;;;;28.80;54.80;;;;;;5050636;28;43881;-86
2023/08/16 08:05:37;;;;;;;;;;;29.00;53.90;;;;;;5051253;28;43026;-84
2023/08/16 08:08:04;;;;;;;;;;;28.80;54.50;;;;;;5046287;28;43809;-85
2023/08/16 08:10:31;;;;;;;;;;;28.90;54.00;;;;;;5047957;28;43337;-83
2023/08/16 08:12:57;;;;;;;;;;;29.10;54.80;;;;;;5047189;28;43163;-86
2023/08/16 08:15:23;;;;;;;;;;;28.80;54.10;;;;;;5048057;28;42997;-83
2023/08/16 08:17:48;;;;;;;;;;;28.90;54.20;;;;;;5066486;28;43043;-89
2023/08/16 08:20:14;;;;;;;;;;;29.30;54.30;;;;;;5067073;28;42912;-86
2023/08/16 08:22:40;;;;;;;;;;;29.00;54.10;;;;;;5067295;28;43137;-82
2023/08/16 08:25:06;;;;;;;;;;;28.90;53.80;;;;;;5066926;28;42979;-83
2023/08/16 08:27:31;;;;;;;;;;;28.70;53.00;;;;;;5062512;28;43758;-82
2023/08/16 08:29:56;;;;;;;;;;;28.90;53.90;;;;;;5061843;28;42983;-83
2023/08/16 08:32:22;;;;;;;;;;;28.90;53.40;;;;;;5059860;28;42888;-82
2023/08/16 08:34:47;;;;;;;;;;;28.90;53.40;;;;;;5049035;28;42846;-83
2023/08/16 08:37:13;;;;;;;;;;;29.00;53.50;;;;;;5066887;28;43402;-84
2023/08/16 08:39:38;;;;;;;;;;;29.00;53.40;;;;;;5066890;28;42936;-82
2023/08/16 08:42:07;;;;;;;;;;;29.10;53.30;;;;;;5066535;28;42844;-83
2023/08/16 08:44:34;;;;;;;;;;;29.00;53.00;;;;;;5048824;28;42896;-82
2023/08/16 08:47:05;;;;;;;;;;;29.00;53.20;;;;;;5064050;28;42985;-82
2023/08/16 08:49:31;;;;;;;;;;;28.90;53.10;;;;;;5054800;28;42958;-83
2023/08/16 08:51:57;;;;;;;;;;;29.00;53.20;;;;;;5054665;28;43015;-87
2023/08/16 08:54:23;;;;;;;;;;;29.10;53.30;;;;;;5054643;28;42963;-84
2023/08/16 08:56:52;;;;;;;;;;;29.10;53.30;;;;;;5054603;28;43899;-84
2023/08/16 08:59:17;;;;;;;;;;;29.10;53.20;;;;;;5053221;28;42913;-91
2023/08/16 09:01:45;;;;;;;;;;;29.00;53.00;;;;;;5060438;28;43462;-83
2023/08/16 09:04:12;;;;;;;;;;;29.00;53.10;;;;;;5062605;28;44049;-94
2023/08/16 09:06:39;;;;;;;;;;;29.00;53.20;;;;;;5065506;28;42897;-83
2023/08/16 09:09:05;;;;;;;;;;;29.20;53.30;;;;;;5050529;28;42868;-87
2023/08/16 09:11:30;;;;;;;;;;;29.10;53.30;;;;;;5053625;28;43484;-87
2023/08/16 09:13:56;;;;;;;;;;;29.10;53.30;;;;;;5070525;28;42974;-81
2023/08/16 09:16:22;;;;;;;;;;;29.10;53.40;;;;;;5085861;28;42898;-89
2023/08/16 09:18:48;;;;;;;;;;;29.10;53.30;;;;;;5072353;28;42864;-82
2023/08/16 09:21:14;;;;;;;;;;;29.20;53.20;;;;;;5065118;28;43229;-88
2023/08/16 09:23:39;;;;;;;;;;;29.00;53.10;;;;;;5065309;28;43832;-82
2023/08/16 09:26:12;;;;;;;;;;;29.10;53.70;;;;;;5061802;28;43010;-83
2023/08/16 09:28:38;;;;;;;;;;;29.00;53.00;;;;;;5042454;28;43111;-83
2023/08/16 09:31:04;;;;;;;;;;;29.20;53.20;;;;;;5056670;28;43744;-83
2023/08/16 09:33:33;;;;;;;;;;;29.10;53.00;;;;;;5066559;28;42906;-85
2023/08/16 09:35:59;;;;;;;;;;;29.50;53.30;;;;;;5062996;28;42943;-83
2023/08/16 09:38:24;;;;;;;;;;;29.20;52.60;;;;;;5042929;28;43177;-84
2023/08/16 09:40:51;;;;;;;;;;;29.10;52.40;;;;;;5061184;28;43785;-82
2023/08/16 09:43:17;;;;;;;;;;;29.10;52.90;;;;;;5064413;28;43006;-81
2023/08/16 09:45:42;;;;;;;;;;;29.10;52.80;;;;;;5064589;28;43002;-84
2023/08/16 09:48:08;;;;;;;;;;;29.10;52.90;;;;;;5064964;28;43082;-82
2023/08/16 09:50:35;;;;;;;;;;;29.20;52.80;;;;;;5065272;28;42956;-86
2023/08/16 09:53:06;;;;;;;;;;;29.20;52.70;;;;;;5061483;28;43063;-83
2023/08/16 09:55:32;;;;;;;;;;;29.70;51.40;;;;;;5064701;28;44006;-84
2023/08/16 09:57:59;;;;;;;;;;;29.30;52.10;;;;;;5064039;28;43049;-82
2023/08/16 10:00:26;;;;;;;;;;;29.30;52.20;;;;;;5062745;28;43890;-82
2023/08/16 10:02:52;;;;;;;;;;;29.40;52.10;;;;;;5053921;28;43255;-87
2023/08/16 10:05:17;;;;;;;;;;;29.50;52.20;;;;;;5058932;28;43253;-83
2023/08/16 10:07:43;;;;;;;;;;;29.70;51.80;;;;;;5063662;28;42999;-83
2023/08/16 10:10:09;;;;;;;;;;;29.40;51.60;;;;;;5059860;28;43085;-90
2023/08/16 10:12:36;;;;;;;;;;;29.60;51.70;;;;;;5057255;28;42958;-83
2023/08/16 10:15:02;;;;;;;;;;;29.40;51.30;;;;;;5063722;28;43048;-90
2023/08/16 10:17:28;;;;;;;;;;;29.40;51.90;;;;;;5065314;28;42933;-84
2023/08/16 10:19:58;;;;;;;;;;;29.40;51.30;;;;;;5063645;28;43047;-83
2023/08/16 10:22:27;;;;;;;;;;;29.40;51.50;;;;;;5063018;28;43041;-84
2023/08/16 10:24:54;;;;;;;;;;;29.20;51.90;;;;;;5062550;28;42919;-83
2023/08/16 10:27:21;;;;;;;;;;;29.30;51.80;;;;;;5064171;28;42957;-84
2023/08/16 10:29:48;;;;;;;;;;;29.30;51.50;;;;;;5079027;28;42941;-85
2023/08/16 10:32:16;;;;;;;;;;;29.50;52.20;;;;;;5069513;28;43147;-83
2023/08/16 10:34:42;;;;;;;;;;;29.40;51.40;;;;;;5077217;28;43735;-90
2023/08/16 10:37:08;;;;;;;;;;;29.40;52.00;;;;;;5058191;28;42973;-82
2023/08/16 10:39:33;;;;;;;;;;;29.30;51.70;;;;;;5061161;28;43389;-82
2023/08/16 10:42:02;;;;;;;;;;;29.40;51.90;;;;;;5063188;28;42859;-87
2023/08/16 10:44:28;;;;;;;;;;;29.40;50.30;;;;;;5063209;28;43749;-82
2023/08/16 10:46:53;;;;;;;;;;;29.50;51.70;;;;;;5064019;28;43327;-84
2023/08/16 10:49:19;;;;;;;;;;;29.30;51.90;;;;;;5063558;28;43422;-81
2023/08/16 10:51:45;;;;;;;;;;;29.30;51.80;;;;;;5062000;28;43107;-82
2023/08/16 10:54:11;;;;;;;;;;;29.30;52.00;;;;;;5034726;28;44813;-82
2023/08/16 10:56:50;;;;;;;;;;;29.40;52.10;;;;;;5055329;28;42761;-83
2023/08/16 10:59:16;;;;;;;;;;;29.30;52.00;;;;;;5063567;28;43773;-83
2023/08/16 11:01:46;;;;;;;;;;;29.40;52.00;;;;;;5062447;28;42976;-83
2023/08/16 11:04:11;;;;;;;;;;;29.30;50.60;;;;;;5063098;28;42837;-82
2023/08/16 11:06:39;;;;;;;;;;;29.30;52.30;;;;;;5063821;28;42777;-83
2023/08/16 11:09:04;;;;;;;;;;;29.40;52.40;;;;;;5064269;28;43758;-83
2023/08/16 11:11:30;;;;;;;;;;;29.30;52.20;;;;;;5067027;28;42993;-81
2023/08/16 11:13:58;;;;;;;;;;;29.40;52.30;;;;;;5066951;28;42970;-83
2023/08/16 11:16:24;;;;;;;;;;;29.30;52.10;;;;;;5066010;28;43104;-82
2023/08/16 11:18:49;;;;;;;;;;;29.50;52.40;;;;;;5066000;28;43525;-82
2023/08/16 11:21:16;;;;;;;;;;;29.40;51.90;;;;;;5044448;28;43137;-82
2023/08/16 11:23:42;;;;;;;;;;;29.30;51.70;;;;;;5062987;28;43837;-82
2023/08/16 11:26:09;;;;;;;;;;;29.30;52.70;;;;;;5066871;28;43569;-82
2023/08/16 11:28:35;;;;;;;;;;;29.40;51.50;;;;;;5066971;28;43641;-82
2023/08/16 11:31:02;;;;;;;;;;;29.40;51.80;;;;;;5066060;28;42823;-83
2023/08/16 11:33:53;;;;;;;;;;;29.40;51.90;;;;;;5066049;28;42951;-82
2023/08/16 11:36:19;;;;;;;;;;;29.50;50.40;;;;;;5042008;28;43561;-83
2023/08/16 11:38:47;;;;;;;;;;;29.60;52.10;;;;;;5063671;28;42951;-83
2023/08/16 11:41:18;;;;;;;;;;;29.30;51.30;;;;;;5065229;28;42994;-83
2023/08/16 11:43:43;;;;;;;;;;;29.50;52.40;;;;;;5044714;28;45238;-84
2023/08/16 11:46:09;;;;;;;;;;;29.50;51.40;;;;;;5064511;28;43002;-82
2023/08/16 11:48:35;;;;;;;;;;;29.50;52.50;;;;;;5065613;28;42928;-82
2023/08/16 11:51:01;;;;;;;;;;;29.40;52.30;;;;;;5065360;28;42959;-82
2023/08/16 11:53:30;;;;;;;;;;;30.10;52.60;;;;;;5065206;28;43567;-81
2023/08/16 11:55:58;;;;;;;;;;;29.40;50.50;;;;;;5064830;28;43034;-82
2023/08/16 11:58:24;;;;;;;;;;;29.50;51.60;;;;;;5044182;28;44179;-83
2023/08/16 12:00:49;;;;;;;;;;;29.50;52.50;;;;;;5062627;28;42971;-83
2023/08/16 12:03:16;;;;;;;;;;;29.50;51.20;;;;;;5064231;28;44001;-82
2023/08/16 12:05:41;;;;;;;;;;;29.60;52.20;;;;;;5066226;28;43091;-83
2023/08/16 12:08:12;;;;;;;;;;;29.40;51.70;;;;;;5063932;28;43212;-83
2023/08/16 12:10:39;;;;;;;;;;;27.40;49.20;;;;;;5066255;28;42920;-82
2023/08/16 12:13:12;;;;;;;;;;;29.50;51.60;;;;;;5065586;28;43091;-82
2023/08/16 12:15:37;;;;;;;;;;;29.60;50.40;;;;;;5042338;28;43358;-84
2023/08/16 12:18:03;;;;;;;;;;;29.40;51.60;;;;;;5064869;28;42938;-83
2023/08/16 12:20:29;;;;;;;;;;;29.50;51.80;;;;;;5064648;28;42970;-81
2023/08/16 12:22:54;;;;;;;;;;;29.30;51.50;;;;;;5065881;28;43040;-82
2023/08/16 12:25:20;;;;;;;;;;;29.40;52.20;;;;;;5064529;28;43029;-80
2023/08/16 12:27:46;;;;;;;;;;;29.60;52.10;;;;;;5065747;28;42878;-79
2023/08/16 12:30:11;;;;;;;;;;;29.50;51.70;;;;;;5066261;28;42938;-80
2023/08/16 12:32:37;;;;;;;;;;;29.50;52.60;;;;;;5066036;28;43425;-80
2023/08/16 12:35:03;;;;;;;;;;;29.30;52.70;;;;;;5047409;28;43078;-79
2023/08/16 12:37:28;;;;;;;;;;;29.40;51.80;;;;;;5061990;28;43355;-81
2023/08/16 12:39:54;;;;;;;;;;;29.40;52.50;;;;;;5044995;28;43066;-80
2023/08/16 12:42:19;;;;;;;;;;;29.40;51.80;;;;;;5061467;28;43016;-80
2023/08/16 12:44:45;;;;;;;;;;;29.30;52.30;;;;;;5065495;28;43098;-82
2023/08/16 12:47:11;;;;;;;;;;;29.50;52.70;;;;;;5064383;28;43313;-83
2023/08/16 12:49:36;;;;;;;;;;;29.50;52.10;;;;;;5065319;28;43208;-84
2023/08/16 12:52:02;;;;;;;;;;;29.70;53.50;;;;;;5072686;28;44017;-81
2023/08/16 12:54:27;;;;;;;;;;;29.30;51.90;;;;;;5072491;28;42914;-82
2023/08/16 12:56:53;;;;;;;;;;;29.80;53.00;;;;;;5065360;28;42951;-80
2023/08/16 12:59:18;;;;;;;;;;;29.50;52.10;;;;;;5064738;28;43026;-82
2023/08/16 13:01:45;;;;;;;;;;;29.50;52.20;;;;;;5064674;28;43079;-83
2023/08/16 13:04:11;;;;;;;;;;;29.50;52.60;;;;;;5063176;28;43083;-84
2023/08/16 13:06:37;;;;;;;;;;;29.50;52.60;;;;;;5067806;28;43314;-81
2023/08/16 13:09:02;;;;;;;;;;;29.60;53.30;;;;;;5082577;28;43043;-85
2023/08/16 13:11:28;;;;;;;;;;;29.50;52.90;;;;;;5067402;28;43482;-83
2023/08/16 13:13:54;;;;;;;;;;;27.10;51.70;;;;;;5072929;28;42977;-84
2023/08/16 13:16:23;;;;;;;;;;;29.40;53.60;;;;;;5062595;28;42964;-82
2023/08/16 13:18:48;;;;;;;;;;;29.20;51.50;;;;;;5070218;28;43168;-86
2023/08/16 13:21:14;;;;;;;;;;;29.50;54.00;;;;;;5066156;28;43626;-83
2023/08/16 13:23:47;;;;;;;;;;;29.50;51.10;;;;;;5063333;28;43085;-86
2023/08/16 13:26:13;;;;;;;;;;;29.40;50.00;;;;;;5065206;28;43050;-85
2023/08/16 13:28:38;;;;;;;;;;;29.50;51.80;;;;;;5062129;28;43101;-86
2023/08/16 13:31:04;;;;;;;;;;;29.60;51.50;;;;;;5064239;28;43058;-84
2023/08/16 13:33:29;;;;;;;;;;;29.50;51.00;;;;;;5041484;28;43091;-82
2023/08/16 13:35:55;;;;;;;;;;;29.50;50.70;;;;;;5043481;28;44325;-83
2023/08/16 13:38:21;;;;;;;;;;;29.50;49.70;;;;;;5064044;28;43008;-84
2023/08/16 13:40:47;;;;;;;;;;;29.40;49.60;;;;;;5061682;28;43006;-85
2023/08/16 13:43:13;;;;;;;;;;;29.50;50.30;;;;;;5079080;28;42929;-85
2023/08/16 13:45:42;;;;;;;;;;;29.50;50.00;;;;;;5067338;28;43081;-84
2023/08/16 13:48:08;;;;;;;;;;;29.40;51.40;;;;;;5062901;28;42978;-86
2023/08/16 13:50:33;;;;;;;;;;;29.60;51.80;;;;;;5065120;28;42915;-84
2023/08/16 13:52:59;;;;;;;;;;;29.60;50.00;;;;;;5056471;28;42971;-88
2023/08/16 13:55:24;;;;;;;;;;;29.50;49.40;;;;;;5047891;28;44084;-83
2023/08/16 13:57:50;;;;;;;;;;;29.50;50.70;;;;;;5070616;28;42931;-85
2023/08/16 14:00:16;;;;;;;;;;;29.50;49.50;;;;;;5060800;28;42899;-83
2023/08/16 14:02:41;;;;;;;;;;;29.50;51.00;;;;;;5041453;28;43471;-84
2023/08/16 14:05:09;;;;;;;;;;;29.60;50.90;;;;;;5063797;28;42974;-84
2023/08/16 14:07:35;;;;;;;;;;;29.60;51.00;;;;;;5063862;28;42924;-85
2023/08/16 14:10:01;;;;;;;;;;;29.60;51.40;;;;;;5062996;28;43018;-86
2023/08/16 14:12:27;;;;;;;;;;;29.60;52.80;;;;;;5056770;28;43014;-85
2023/08/16 14:14:52;;;;;;;;;;;29.60;51.40;;;;;;5056276;28;43782;-85